createdAt,value
2019-04-22T00:00:17.995Z,33.58
2019-04-22T00:02:52.560Z,33.98
2019-04-22T00:05:37.584Z,33.57
2019-04-22T00:08:16.739Z,34.09
2019-04-22T00:10:47.143Z,33.46
2019-04-22T00:13:26.003Z,33.38
2019-04-22T00:15:41.802Z,33.68
2019-04-22T00:18:28.260Z,33.99
2019-04-22T00:20:58.285Z,33.02
2019-04-22T00:23:24.513Z,33.44
2019-04-22T00:26:03.970Z,33.32
2019-04-22T00:28:30.321Z,33.06
2019-04-22T00:31:11.523Z,33.49
2019-04-22T00:33:39.359Z,33.05
2019-04-22T00:36:08.778Z,33.52
2019-04-22T00:38:44.412Z,33.13
2019-04-22T00:41:26.271Z,33.74
2019-04-22T00:43:53.003Z,33.31
2019-04-22T00:46:18.142Z,33.38
2019-04-22T00:49:30.259Z,32.80
2019-04-22T00:51:44.934Z,32.85
2019-04-22T00:53:57.529Z,33.11
2019-04-22T00:56:22.059Z,33.44
2019-04-22T00:58:56.595Z,33.71
2019-04-22T01:01:31.841Z,33.51
2019-04-22T01:04:14.323Z,32.93
2019-04-22T01:06:31.690Z,33.69
2019-04-22T01:09:13.672Z,33.76
2019-04-22T01:11:32.295Z,33.71
2019-04-22T01:14:06.534Z,33.09
2019-04-22T01:16:42.912Z,32.82
2019-04-22T01:19:16.683Z,32.78
2019-04-22T01:24:17.094Z,32.72
2019-04-22T01:26:43.380Z,33.40
2019-04-22T01:29:10.960Z,33.64
2019-04-22T01:31:36.527Z,32.99
2019-04-22T01:34:22.248Z,33.45
2019-04-22T01:36:57.724Z,33.48
2019-04-22T01:39:40.312Z,33.05
2019-04-22T01:42:06.120Z,33.45
2019-04-22T01:44:42.191Z,33.42
2019-04-22T01:47:13.384Z,33.22
2019-04-22T01:49:41.771Z,33.26
2019-04-22T01:52:15.984Z,33.39
2019-04-22T01:54:48.547Z,33.40
2019-04-22T01:57:17.430Z,33.41
2019-04-22T01:59:40.472Z,33.18
2019-04-22T02:02:25.541Z,34.05
2019-04-22T02:07:29.291Z,34.59
2019-04-22T02:09:55.181Z,34.42
2019-04-22T02:12:35.392Z,34.58
2019-04-22T02:14:57.256Z,34.58
2019-04-22T02:17:37.224Z,34.29
2019-04-22T02:20:05.083Z,34.80
2019-04-22T02:23:18.985Z,34.88
2019-04-22T02:25:41.387Z,34.70
2019-04-22T02:28:22.198Z,34.85
2019-04-22T02:30:49.797Z,35.25
2019-04-22T02:33:40.629Z,36.00
2019-04-22T02:36:16.672Z,35.90
2019-04-22T02:38:34.852Z,35.84
2019-04-22T02:41:15.977Z,36.22
2019-04-22T02:43:35.664Z,35.69
2019-04-22T02:46:13.508Z,36.09
2019-04-22T02:48:45.923Z,35.74
2019-04-22T02:51:10.429Z,36.69
2019-04-22T02:56:23.051Z,36.95
2019-04-22T02:58:52.293Z,37.00
2019-04-22T03:01:18.264Z,36.11
2019-04-22T03:03:51.899Z,35.65
2019-04-22T03:06:30.437Z,36.71
2019-04-22T03:08:50.536Z,36.98
2019-04-22T03:11:19.121Z,36.26
2019-04-22T03:18:55.030Z,36.55
2019-04-22T03:21:18.822Z,36.60
2019-04-22T03:26:31.891Z,36.53
2019-04-22T03:37:21.107Z,35.98
2019-04-22T03:59:56.707Z,36.67
2019-04-22T04:02:21.422Z,36.69
2019-04-22T04:04:43.149Z,35.89
2019-04-22T04:07:33.605Z,35.77
2019-04-22T04:10:00.387Z,36.62
2019-04-22T04:17:29.333Z,36.40
2019-04-22T04:22:50.328Z,37.17
2019-04-22T04:25:27.550Z,36.28
2019-04-22T04:27:53.581Z,36.49
2019-04-22T04:32:52.446Z,35.87
2019-04-22T04:37:45.053Z,35.67
2019-04-22T04:40:28.798Z,36.07
2019-04-22T04:42:46.006Z,35.79
2019-04-22T04:50:18.408Z,37.37
2019-04-22T04:53:02.579Z,37.69
2019-04-22T04:55:22.159Z,38.66
2019-04-22T04:58:04.396Z,36.40
2019-04-22T05:05:29.317Z,36.21
2019-04-22T05:10:48.002Z,37.23
2019-04-22T05:13:12.469Z,37.12
2019-04-22T05:18:07.236Z,36.97
2019-04-22T05:21:50.167Z,36.18
2019-04-22T05:23:07.026Z,38.32
2019-04-22T05:25:33.812Z,38.42
2019-04-22T05:28:12.987Z,38.25
2019-04-22T05:33:14.274Z,37.64
2019-04-22T05:35:47.176Z,38.09
2019-04-22T05:38:21.228Z,38.82
2019-04-22T05:40:42.090Z,38.95
2019-04-22T05:43:22.731Z,40.30
2019-04-22T05:45:54.545Z,39.01
2019-04-22T05:48:27.367Z,39.30
2019-04-22T05:50:59.300Z,37.90
2019-04-22T05:53:31.264Z,37.40
2019-04-22T05:55:56.918Z,37.06
2019-04-22T05:58:29.379Z,37.35
2019-04-22T06:03:49.338Z,36.90
2019-04-22T06:06:16.739Z,36.00
2019-04-22T06:08:46.940Z,37.43
2019-04-22T06:11:24.432Z,36.96
2019-04-22T06:13:46.856Z,38.45
2019-04-22T06:16:30.823Z,36.51
2019-04-22T06:19:03.096Z,36.81
2019-04-22T06:24:13.931Z,40.23
2019-04-22T06:26:45.792Z,39.77
2019-04-22T06:29:22.178Z,40.89
2019-04-22T06:32:06.953Z,40.11
2019-04-22T06:34:17.657Z,38.73
2019-04-22T06:36:55.368Z,38.16
2019-04-22T06:39:32.497Z,38.86
2019-04-22T06:41:53.712Z,39.96
2019-04-22T06:44:24.120Z,40.16
2019-04-22T06:46:52.418Z,40.09
2019-04-22T06:49:33.273Z,41.28
2019-04-22T06:52:01.173Z,40.16
2019-04-22T06:54:27.900Z,39.92
2019-04-22T06:56:59.621Z,40.97
2019-04-22T06:59:32.761Z,39.88
2019-04-22T07:04:33.649Z,38.29
2019-04-22T07:07:06.702Z,37.53
2019-04-22T07:09:41.143Z,39.63
2019-04-22T07:12:11.523Z,39.73
2019-04-22T07:14:47.269Z,39.73
2019-04-22T07:17:15.233Z,40.23
2019-04-22T07:19:43.767Z,39.42
2019-04-22T07:22:16.282Z,39.86
2019-04-22T07:27:25.676Z,39.10
2019-04-22T07:29:55.364Z,39.31
2019-04-22T07:32:47.764Z,38.36
2019-04-22T07:35:04.133Z,38.53
2019-04-22T07:37:37.148Z,39.20
2019-04-22T07:39:58.330Z,38.73
2019-04-22T07:42:34.389Z,38.38
2019-04-22T07:45:03.889Z,36.58
2019-04-22T07:50:05.839Z,38.85
2019-04-22T07:52:51.397Z,39.09
2019-04-22T07:55:06.326Z,38.72
2019-04-22T07:57:36.598Z,38.93
2019-04-22T08:00:19.063Z,38.89
2019-04-22T08:05:20.670Z,39.15
2019-04-22T08:07:54.164Z,38.75
2019-04-22T08:10:40.431Z,38.44
2019-04-22T08:12:53.391Z,39.05
2019-04-22T08:15:19.552Z,38.35
2019-04-22T08:18:09.905Z,38.60
2019-04-22T08:20:28.972Z,39.01
2019-04-22T08:23:04.816Z,37.55
2019-04-22T08:25:36.631Z,37.35
2019-04-22T08:28:03.050Z,37.34
2019-04-22T08:30:41.402Z,38.00
2019-04-22T08:33:10.893Z,37.74
2019-04-22T08:38:14.827Z,37.38
2019-04-22T08:41:06.867Z,36.65
2019-04-22T08:43:33.036Z,42.45
2019-04-22T08:45:58.499Z,35.75
2019-04-22T08:48:29.669Z,34.48
2019-04-22T08:51:00.592Z,32.97
2019-04-22T08:53:35.899Z,33.28
2019-04-22T08:56:19.777Z,32.22
2019-04-22T08:58:31.226Z,31.16
2019-04-22T09:01:04.548Z,32.09
2019-04-22T09:03:37.988Z,31.97
2019-04-22T09:06:11.337Z,32.52
2019-04-22T09:08:41.793Z,31.44
2019-04-22T09:11:16.472Z,31.50
2019-04-22T09:13:45.338Z,31.38
2019-04-22T09:16:20.767Z,31.91
2019-04-22T09:18:48.759Z,31.32
2019-04-22T09:26:23.962Z,31.90
2019-04-22T09:28:59.906Z,32.19
2019-04-22T09:31:23.908Z,31.54
2019-04-22T09:33:53.197Z,31.90
2019-04-22T09:39:00.873Z,31.92
2019-04-22T09:41:36.769Z,32.59
2019-04-22T09:44:02.378Z,31.96
2019-04-22T09:49:12.145Z,33.12
2019-04-22T09:51:37.502Z,33.86
2019-04-22T09:54:14.960Z,34.06
2019-04-22T09:56:43.960Z,33.00
2019-04-22T09:59:13.955Z,33.47
2019-04-22T10:02:02.344Z,34.13
2019-04-22T10:04:10.339Z,34.62
2019-04-22T10:07:13.755Z,35.27
2019-04-22T10:11:50.823Z,33.44
2019-04-22T10:14:28.951Z,33.36
2019-04-22T10:16:53.968Z,33.33
2019-04-22T10:19:29.941Z,33.82
2019-04-22T10:21:57.288Z,34.46
2019-04-22T10:24:33.029Z,33.97
2019-04-22T10:27:02.053Z,34.96
2019-04-22T10:29:43.570Z,33.88
2019-04-22T10:32:07.029Z,32.99
2019-04-22T10:34:26.922Z,32.81
2019-04-22T10:36:54.376Z,33.28
2019-04-22T10:39:20.446Z,33.84
2019-04-22T10:41:52.753Z,34.41
2019-04-22T10:44:23.629Z,34.26
2019-04-22T10:46:53.909Z,33.63
2019-04-22T10:49:24.570Z,33.12
2019-04-22T10:51:55.005Z,32.76
2019-04-22T10:54:25.437Z,33.05
2019-04-22T10:56:56.885Z,33.58
2019-04-22T10:59:27.014Z,34.74
2019-04-22T11:01:56.917Z,33.94
2019-04-22T11:04:28.062Z,34.49
2019-04-22T11:07:03.356Z,34.48
2019-04-22T11:09:30.971Z,34.58
2019-04-22T11:12:06.431Z,34.73
2019-04-22T11:14:32.941Z,34.53
2019-04-22T11:17:05.307Z,34.87
2019-04-22T11:19:35.325Z,34.36
2019-04-22T11:22:12.814Z,35.17
2019-04-22T11:24:37.220Z,35.01
2019-04-22T11:27:08.338Z,34.65
2019-04-22T11:29:39.374Z,34.65
2019-04-22T11:32:12.883Z,34.48
2019-04-22T11:34:42.960Z,34.38
2019-04-22T11:37:14.531Z,33.65
2019-04-22T11:39:44.930Z,34.22
2019-04-22T11:42:16.317Z,34.16
2019-04-22T11:44:47.534Z,33.82
2019-04-22T11:47:17.660Z,35.07
2019-04-22T11:49:47.958Z,34.92
2019-04-22T11:52:19.085Z,36.00
2019-04-22T11:54:50.675Z,36.37
2019-04-22T11:57:21.149Z,36.17
2019-04-22T11:59:51.190Z,36.08
2019-04-22T12:02:23.394Z,35.51
2019-04-22T12:04:56.008Z,35.55
2019-04-22T12:07:26.731Z,35.87
2019-04-22T12:09:59.592Z,36.07
2019-04-22T12:12:29.995Z,36.54
2019-04-22T12:15:00.793Z,36.94
2019-04-22T12:17:32.046Z,37.20
2019-04-22T12:20:04.776Z,37.03
2019-04-22T12:22:34.282Z,37.02
2019-04-22T12:25:08.149Z,37.02
2019-04-22T12:27:41.055Z,37.40
2019-04-22T12:30:12.381Z,35.86
2019-04-22T12:32:43.557Z,36.38
2019-04-22T12:35:15.663Z,36.69
2019-04-22T12:37:52.937Z,35.75
2019-04-22T12:40:31.560Z,36.07
2019-04-22T12:42:51.122Z,36.32
2019-04-22T12:45:22.534Z,35.38
2019-04-22T12:47:53.921Z,34.97
2019-04-22T12:50:29.865Z,34.82
2019-04-22T12:53:03.221Z,35.25
2019-04-22T12:55:30.286Z,35.34
2019-04-22T12:58:02.433Z,35.35
2019-04-22T13:00:32.416Z,35.02
2019-04-22T13:03:03.123Z,34.71
2019-04-22T13:05:33.444Z,34.48
2019-04-22T13:08:03.583Z,33.60
2019-04-22T13:10:47.330Z,34.33
2019-04-22T13:13:06.981Z,34.60
2019-04-22T13:15:37.380Z,34.05
2019-04-22T13:18:17.543Z,34.21
2019-04-22T13:20:39.160Z,35.40
2019-04-22T13:23:09.577Z,34.68
2019-04-22T13:25:40.900Z,34.49
2019-04-22T13:28:11.363Z,34.65
2019-04-22T13:30:41.859Z,34.49
2019-04-22T13:33:12.622Z,34.53
2019-04-22T13:35:43.819Z,35.42
2019-04-22T13:38:15.198Z,35.53
2019-04-22T13:41:01.507Z,35.56
2019-04-22T13:43:18.658Z,35.60
2019-04-22T13:45:49.850Z,35.50
2019-04-22T13:48:40.030Z,34.40
2019-04-22T13:51:21.009Z,35.05
2019-04-22T13:54:14.196Z,35.42
2019-04-22T13:56:15.430Z,35.14
2019-04-22T13:58:43.200Z,35.20
2019-04-22T14:01:02.639Z,35.17
2019-04-22T14:03:52.227Z,35.35
2019-04-22T14:06:22.685Z,35.13
2019-04-22T14:08:53.440Z,34.93
2019-04-22T14:11:34.478Z,35.02
2019-04-22T14:13:56.619Z,35.16
2019-04-22T14:16:27.037Z,34.94
2019-04-22T14:18:58.119Z,34.29
2019-04-22T14:21:28.312Z,35.43
2019-04-22T14:23:58.585Z,35.75
2019-04-22T14:26:46.856Z,35.73
2019-04-22T14:29:01.775Z,35.64
2019-04-22T14:31:32.838Z,35.08
2019-04-22T14:36:35.256Z,32.97
2019-04-22T14:39:10.280Z,33.60
2019-04-22T14:41:55.396Z,33.26
2019-04-22T14:44:42.162Z,34.54
2019-04-22T14:47:15.775Z,33.44
2019-04-22T14:49:40.204Z,32.71
2019-04-22T14:52:13.152Z,31.81
2019-04-22T14:54:34.999Z,32.98
2019-04-22T14:56:51.782Z,33.46
2019-04-22T14:59:22.893Z,33.08
2019-04-22T15:01:54.103Z,32.65
2019-04-22T15:04:24.558Z,32.42
2019-04-22T15:06:54.812Z,32.78
2019-04-22T15:09:26.086Z,32.68
2019-04-22T15:12:08.728Z,32.80
2019-04-22T15:14:28.101Z,32.48
2019-04-22T15:17:20.820Z,32.52
2019-04-22T15:20:08.176Z,32.32
2019-04-22T15:22:38.848Z,32.14
2019-04-22T15:25:10.333Z,32.73
2019-04-22T15:27:41.584Z,33.41
2019-04-22T15:30:12.748Z,33.15
2019-04-22T15:32:43.188Z,32.86
2019-04-22T15:35:15.409Z,33.07
2019-04-22T15:37:45.617Z,33.94
2019-04-22T15:40:16.562Z,33.65
2019-04-22T15:42:47.079Z,33.83
2019-04-22T15:45:18.781Z,32.91
2019-04-22T15:47:50.113Z,32.37
2019-04-22T15:50:20.429Z,32.38
2019-04-22T15:52:53.811Z,32.35
2019-04-22T15:55:22.859Z,31.66
2019-04-22T15:57:53.985Z,32.19
2019-04-22T16:00:36.791Z,32.15
2019-04-22T16:02:57.591Z,31.91
2019-04-22T16:05:28.122Z,32.05
2019-04-22T16:07:59.160Z,31.43
2019-04-22T16:10:30.409Z,30.96
2019-04-22T16:13:09.374Z,31.87
2019-04-22T16:15:32.427Z,31.24
2019-04-22T16:18:04.752Z,32.45
2019-04-22T16:20:34.331Z,32.48
2019-04-22T16:23:38.681Z,32.90
2019-04-22T16:26:22.076Z,32.88
2019-04-22T16:28:55.786Z,32.55
2019-04-22T16:31:25.077Z,32.98
2019-04-22T16:33:56.305Z,32.67
2019-04-22T16:36:26.916Z,33.23
2019-04-22T16:38:57.048Z,33.22
2019-04-22T16:41:28.582Z,33.06
2019-04-22T16:43:58.788Z,33.25
2019-04-22T16:46:29.756Z,33.63
2019-04-22T16:49:01.330Z,33.77
2019-04-22T16:51:32.043Z,34.13
2019-04-22T16:54:02.219Z,33.75
2019-04-22T16:56:35.089Z,34.19
2019-04-22T16:59:04.524Z,34.58
2019-04-22T17:02:01.087Z,34.09
2019-04-22T17:04:46.738Z,34.07
2019-04-22T17:07:18.053Z,35.28
2019-04-22T17:09:48.167Z,34.36
2019-04-22T17:12:19.561Z,35.25
2019-04-22T17:14:56.135Z,35.29
2019-04-22T17:17:22.314Z,36.13
2019-04-22T17:19:53.288Z,37.12
2019-04-22T17:22:23.900Z,36.81
2019-04-22T17:24:54.103Z,37.31
2019-04-22T17:27:24.480Z,36.74
2019-04-22T17:29:54.753Z,36.32
2019-04-22T17:32:26.964Z,36.07
2019-04-22T17:34:57.420Z,36.20
2019-04-22T17:37:31.629Z,36.13
2019-04-22T17:40:17.955Z,35.65
2019-04-22T17:42:53.312Z,35.46
2019-04-22T17:45:40.205Z,36.60
2019-04-22T17:48:22.293Z,36.83
2019-04-22T17:50:59.703Z,37.91
2019-04-22T17:53:33.441Z,36.40
2019-04-22T17:56:05.069Z,36.55
2019-04-22T17:58:40.387Z,38.23
2019-04-22T18:01:11.893Z,38.08
2019-04-22T18:03:28.044Z,37.39
2019-04-22T18:05:56.180Z,37.91
2019-04-22T18:08:40.746Z,38.17
2019-04-22T18:11:17.070Z,38.28
2019-04-22T18:13:44.568Z,39.48
2019-04-22T18:16:19.669Z,39.79
2019-04-22T18:18:47.689Z,39.69
2019-04-22T18:21:16.121Z,39.68
2019-04-22T18:23:42.179Z,39.48
2019-04-22T18:26:22.792Z,39.40
2019-04-22T18:28:55.893Z,39.16
2019-04-22T18:31:17.527Z,40.09
2019-04-22T18:33:59.476Z,40.46
2019-04-22T18:36:22.715Z,40.67
2019-04-22T18:39:07.176Z,40.13
2019-04-22T18:41:36.588Z,40.11
2019-04-22T18:44:07.984Z,40.80
2019-04-22T18:46:37.089Z,41.35
2019-04-22T18:49:08.302Z,41.23
2019-04-22T18:51:46.690Z,40.68
2019-04-22T18:54:36.679Z,40.74
2019-04-22T18:57:07.962Z,40.79
2019-04-22T18:59:26.261Z,41.97
2019-04-22T19:01:53.633Z,42.15
2019-04-22T19:04:31.607Z,41.98
2019-04-22T19:07:17.295Z,42.75
2019-04-22T19:09:56.285Z,42.49
2019-04-22T19:20:03.061Z,42.89
2019-04-22T19:22:33.694Z,43.43
2019-04-22T19:24:54.735Z,42.91
2019-04-22T19:27:25.190Z,43.85
2019-04-22T19:30:04.253Z,43.45
2019-04-22T19:32:32.334Z,43.52
2019-04-22T19:34:57.157Z,43.97
2019-04-22T19:37:33.202Z,44.15
2019-04-22T19:42:50.523Z,43.77
2019-04-22T19:45:13.284Z,44.29
2019-04-22T19:47:41.992Z,44.53
2019-04-22T19:50:16.600Z,43.90
2019-04-22T19:52:43.389Z,44.39
2019-04-22T19:55:21.387Z,43.38
2019-04-22T19:57:52.582Z,44.40
2019-04-22T20:00:23.942Z,44.37
2019-04-22T20:03:16.531Z,45.07
2019-04-22T20:05:50.873Z,45.28
2019-04-22T20:08:23.239Z,45.58
2019-04-22T20:10:46.093Z,45.52
2019-04-22T20:13:28.762Z,45.27
2019-04-22T20:15:43.798Z,45.94
2019-04-22T20:20:59.651Z,45.83
2019-04-22T20:23:22.905Z,45.63
2019-04-22T20:25:51.192Z,46.28
2019-04-22T20:28:35.331Z,46.90
2019-04-22T20:31:03.537Z,46.29
2019-04-22T20:33:35.354Z,46.67
2019-04-22T20:36:14.286Z,45.73
2019-04-22T20:38:38.862Z,46.74
2019-04-22T20:41:05.745Z,46.63
2019-04-22T20:43:46.928Z,46.74
2019-04-22T20:46:19.063Z,47.24
2019-04-22T20:48:53.143Z,46.58
2019-04-22T20:51:17.196Z,47.21
2019-04-22T20:53:52.181Z,47.34
2019-04-22T20:56:17.508Z,47.62
2019-04-22T20:58:52.168Z,47.20
2019-04-22T21:01:22.779Z,47.36
2019-04-22T21:03:44.010Z,47.41
2019-04-22T21:06:22.769Z,48.03
2019-04-22T21:09:01.025Z,47.22
2019-04-22T21:11:30.293Z,47.17
2019-04-22T21:14:01.469Z,46.94
2019-04-22T21:16:32.883Z,47.27
2019-04-22T21:18:58.726Z,47.24
2019-04-22T21:21:38.706Z,47.90
2019-04-22T21:23:59.698Z,48.01
2019-04-22T21:26:36.521Z,48.18
2019-04-22T21:29:07.160Z,47.19
2019-04-22T21:31:46.477Z,47.52
2019-04-22T21:34:13.028Z,47.48
2019-04-22T21:36:48.172Z,47.82
2019-04-22T21:39:12.498Z,47.09
2019-04-22T21:41:48.620Z,47.28
2019-04-22T21:44:21.279Z,48.36
2019-04-22T21:46:59.738Z,48.78
2019-04-22T21:49:27.998Z,48.67
2019-04-22T21:52:13.626Z,48.65
2019-04-22T21:54:30.242Z,47.56
2019-04-22T21:57:13.793Z,48.65
2019-04-22T21:59:34.624Z,49.21
2019-04-22T22:02:17.512Z,48.41
2019-04-22T22:04:44.610Z,49.10
2019-04-22T22:07:05.335Z,49.04
2019-04-22T22:09:47.131Z,48.75
2019-04-22T22:12:18.127Z,48.84
2019-04-22T22:14:55.894Z,49.30
2019-04-22T22:17:22.344Z,49.50
2019-04-22T22:19:55.612Z,49.52
2019-04-22T22:22:42.205Z,49.54
2019-04-22T22:25:04.296Z,49.62
2019-04-22T22:27:34.249Z,49.28
2019-04-22T22:30:19.206Z,49.94
2019-04-22T22:32:33.714Z,50.34
2019-04-22T22:35:12.032Z,50.30
2019-04-22T22:37:28.198Z,49.11
2019-04-22T22:39:57.998Z,48.82
2019-04-22T22:42:30.249Z,48.67
2019-04-22T22:45:06.555Z,49.15
2019-04-22T22:47:47.226Z,49.35
2019-04-22T22:50:17.258Z,49.12
2019-04-22T22:52:58.978Z,49.09
2019-04-22T22:55:22.297Z,49.74
2019-04-22T22:58:01.345Z,49.86
2019-04-22T23:00:28.748Z,49.55
2019-04-22T23:03:16.845Z,49.61
2019-04-22T23:05:35.537Z,49.23
2019-04-22T23:08:00.778Z,50.01
2019-04-22T23:10:44.318Z,49.66
2019-04-22T23:13:20.007Z,48.67
2019-04-22T23:15:37.533Z,49.48
2019-04-22T23:17:50.014Z,48.56
2019-04-22T23:20:27.520Z,48.68
2019-04-22T23:23:14.340Z,49.68
2019-04-22T23:25:50.010Z,49.47
2019-04-22T23:28:31.152Z,49.09
2019-04-22T23:31:14.099Z,49.46
2019-04-22T23:33:55.976Z,49.72
2019-04-22T23:36:36.895Z,49.82
2019-04-22T23:39:27.429Z,49.43
2019-04-22T23:42:00.673Z,48.08
2019-04-22T23:44:27.531Z,49.32
2019-04-22T23:46:55.955Z,49.16
2019-04-22T23:49:28.209Z,49.45
2019-04-22T23:52:08.883Z,49.68
2019-04-22T23:54:44.929Z,49.64
2019-04-22T23:57:08.478Z,49.31
